Terminal Aerodrome Forecast
Issued by NWS

Home | Current Version | Previous Version | Graphics & Text | Print | Product List | Glossary On
Versions: 1 2 3 4 5 6 7 8 9 10 11 12 13 14 15 16 17 18
000
FTUS43 KIWX 141253 AAA
TAFSBN
TAF AMD
KSBN 141253Z 1413/1512 10007KT P6SM SCT020 OVC050
      TEMPO 1413/1415 BKN020
     FM142000 31006KT P6SM BKN050
     FM150000 32006KT P6SM SCT200=

USA.gov is the U.S. government's official web portal to all federal, state and local government web resources and services.